sensor_id;sensor_type;location;lat;lon;timestamp;temperature;humidity
13409;DHT22;6775;49.574;11.170;2022-08-20T00:00:56;17.80;99.90
13409;DHT22;6775;49.574;11.170;2022-08-20T00:03:31;17.80;99.90
13409;DHT22;6775;49.574;11.170;2022-08-20T00:06:04;17.80;99.90
13409;DHT22;6775;49.574;11.170;2022-08-20T00:08:34;17.70;99.90
13409;DHT22;6775;49.574;11.170;2022-08-20T00:11:02;17.70;99.90
13409;DHT22;6775;49.574;11.170;2022-08-20T00:13:35;17.70;99.90
13409;DHT22;6775;49.574;11.170;2022-08-20T00:16:04;17.70;99.90
13409;DHT22;6775;49.574;11.170;2022-08-20T00:18:33;17.70;99.90
13409;DHT22;6775;49.574;11.170;2022-08-20T00:21:05;17.70;99.90
13409;DHT22;6775;49.574;11.170;2022-08-20T00:23:36;17.70;99.90
13409;DHT22;6775;49.574;11.170;2022-08-20T00:26:05;17.70;99.90
13409;DHT22;6775;49.574;11.170;2022-08-20T00:28:33;17.70;99.90
13409;DHT22;6775;49.574;11.170;2022-08-20T00:31:03;17.80;99.90
13409;DHT22;6775;49.574;11.170;2022-08-20T00:33:32;17.70;99.90
13409;DHT22;6775;49.574;11.170;2022-08-20T00:35:59;17.80;99.90
13409;DHT22;6775;49.574;11.170;2022-08-20T00:38:32;17.70;99.90
13409;DHT22;6775;49.574;11.170;2022-08-20T00:41:03;17.70;99.90
13409;DHT22;6775;49.574;11.170;2022-08-20T00:43:35;17.80;99.90
13409;DHT22;6775;49.574;11.170;2022-08-20T00:50:19;17.70;99.90
13409;DHT22;6775;49.574;11.170;2022-08-20T00:52:50;17.70;99.90
13409;DHT22;6775;49.574;11.170;2022-08-20T00:55:20;17.80;99.90
13409;DHT22;6775;49.574;11.170;2022-08-20T00:57:58;17.80;99.90
13409;DHT22;6775;49.574;11.170;2022-08-20T01:00:30;17.80;99.90
13409;DHT22;6775;49.574;11.170;2022-08-20T01:03:00;17.80;99.90
13409;DHT22;6775;49.574;11.170;2022-08-20T01:05:28;17.80;99.90
13409;DHT22;6775;49.574;11.170;2022-08-20T01:07:56;17.80;99.90
13409;DHT22;6775;49.574;11.170;2022-08-20T01:10:26;17.80;99.90
13409;DHT22;6775;49.574;11.170;2022-08-20T01:12:57;17.80;99.90
13409;DHT22;6775;49.574;11.170;2022-08-20T01:15:27;17.80;99.90
13409;DHT22;6775;49.574;11.170;2022-08-20T01:17:59;17.80;99.90
13409;DHT22;6775;49.574;11.170;2022-08-20T01:20:31;17.80;99.90
13409;DHT22;6775;49.574;11.170;2022-08-20T01:23:06;17.80;99.90
13409;DHT22;6775;49.574;11.170;2022-08-20T01:26:02;17.80;99.90
13409;DHT22;6775;49.574;11.170;2022-08-20T01:45:03;17.70;99.90
13409;DHT22;6775;49.574;11.170;2022-08-20T01:47:33;17.80;99.90
13409;DHT22;6775;49.574;11.170;2022-08-20T01:50:09;17.70;99.90
13409;DHT22;6775;49.574;11.170;2022-08-20T01:52:46;17.80;99.90
13409;DHT22;6775;49.574;11.170;2022-08-20T01:55:16;17.80;99.90
13409;DHT22;6775;49.574;11.170;2022-08-20T01:57:44;17.80;99.90
13409;DHT22;6775;49.574;11.170;2022-08-20T02:00:17;17.70;99.90
13409;DHT22;6775;49.574;11.170;2022-08-20T02:02:47;17.70;99.90
13409;DHT22;6775;49.574;11.170;2022-08-20T02:05:16;17.80;99.90
13409;DHT22;6775;49.574;11.170;2022-08-20T02:07:44;17.70;99.90
13409;DHT22;6775;49.574;11.170;2022-08-20T02:10:13;17.70;99.90
13409;DHT22;6775;49.574;11.170;2022-08-20T02:12:42;17.70;99.90
13409;DHT22;6775;49.574;11.170;2022-08-20T02:15:13;17.70;99.90
13409;DHT22;6775;49.574;11.170;2022-08-20T02:17:43;17.70;99.90
13409;DHT22;6775;49.574;11.170;2022-08-20T02:20:13;17.70;99.90
13409;DHT22;6775;49.574;11.170;2022-08-20T02:22:45;17.70;99.90
13409;DHT22;6775;49.574;11.170;2022-08-20T02:25:16;17.70;99.90
13409;DHT22;6775;49.574;11.170;2022-08-20T02:27:46;17.50;99.90
13409;DHT22;6775;49.574;11.170;2022-08-20T02:30:18;17.70;99.90
13409;DHT22;6775;49.574;11.170;2022-08-20T02:32:56;17.70;99.90
13409;DHT22;6775;49.574;11.170;2022-08-20T02:35:24;17.70;99.90
13409;DHT22;6775;49.574;11.170;2022-08-20T02:37:53;17.70;99.90
13409;DHT22;6775;49.574;11.170;2022-08-20T02:40:23;17.70;99.90
13409;DHT22;6775;49.574;11.170;2022-08-20T02:42:57;17.70;99.90
13409;DHT22;6775;49.574;11.170;2022-08-20T02:45:25;17.70;99.90
13409;DHT22;6775;49.574;11.170;2022-08-20T02:52:07;17.60;99.90
13409;DHT22;6775;49.574;11.170;2022-08-20T02:54:35;17.60;99.90
13409;DHT22;6775;49.574;11.170;2022-08-20T02:57:03;17.60;99.90
13409;DHT22;6775;49.574;11.170;2022-08-20T02:59:31;17.60;99.90
13409;DHT22;6775;49.574;11.170;2022-08-20T03:01:59;17.50;99.90
13409;DHT22;6775;49.574;11.170;2022-08-20T03:04:27;17.50;99.90
13409;DHT22;6775;49.574;11.170;2022-08-20T03:06:56;17.60;99.90
13409;DHT22;6775;49.574;11.170;2022-08-20T03:09:25;17.60;99.90
13409;DHT22;6775;49.574;11.170;2022-08-20T03:11:53;17.60;99.90
13409;DHT22;6775;49.574;11.170;2022-08-20T03:14:21;17.60;99.90
13409;DHT22;6775;49.574;11.170;2022-08-20T03:16:49;17.60;99.90
13409;DHT22;6775;49.574;11.170;2022-08-20T03:19:17;17.60;99.90
13409;DHT22;6775;49.574;11.170;2022-08-20T03:21:45;17.50;99.90
13409;DHT22;6775;49.574;11.170;2022-08-20T03:24:13;17.50;99.90
13409;DHT22;6775;49.574;11.170;2022-08-20T03:26:42;17.50;99.90
13409;DHT22;6775;49.574;11.170;2022-08-20T03:29:10;17.60;99.90
13409;DHT22;6775;49.574;11.170;2022-08-20T03:31:38;17.60;99.90
13409;DHT22;6775;49.574;11.170;2022-08-20T03:34:06;17.60;99.90
13409;DHT22;6775;49.574;11.170;2022-08-20T03:36:34;17.60;99.90
13409;DHT22;6775;49.574;11.170;2022-08-20T03:39:04;17.60;99.90
13409;DHT22;6775;49.574;11.170;2022-08-20T03:41:33;17.60;99.90
13409;DHT22;6775;49.574;11.170;2022-08-20T03:44:02;17.50;99.90
13409;DHT22;6775;49.574;11.170;2022-08-20T03:46:31;17.50;99.90
13409;DHT22;6775;49.574;11.170;2022-08-20T03:48:59;17.50;99.90
13409;DHT22;6775;49.574;11.170;2022-08-20T03:51:28;17.40;99.90
13409;DHT22;6775;49.574;11.170;2022-08-20T03:53:56;17.50;99.90
13409;DHT22;6775;49.574;11.170;2022-08-20T03:56:25;17.50;99.90
13409;DHT22;6775;49.574;11.170;2022-08-20T03:58:53;17.50;99.90
13409;DHT22;6775;49.574;11.170;2022-08-20T04:01:23;17.50;99.90
13409;DHT22;6775;49.574;11.170;2022-08-20T04:04:11;17.50;99.90
13409;DHT22;6775;49.574;11.170;2022-08-20T04:06:38;17.50;99.90
13409;DHT22;6775;49.574;11.170;2022-08-20T04:09:08;17.50;99.90
13409;DHT22;6775;49.574;11.170;2022-08-20T04:11:38;17.50;99.90
13409;DHT22;6775;49.574;11.170;2022-08-20T04:18:22;17.50;99.90
13409;DHT22;6775;49.574;11.170;2022-08-20T04:20:52;17.50;99.90
13409;DHT22;6775;49.574;11.170;2022-08-20T04:23:20;17.50;99.90
13409;DHT22;6775;49.574;11.170;2022-08-20T04:25:48;17.50;99.90
13409;DHT22;6775;49.574;11.170;2022-08-20T04:28:19;17.60;99.90
13409;DHT22;6775;49.574;11.170;2022-08-20T04:30:51;17.50;99.90
13409;DHT22;6775;49.574;11.170;2022-08-20T04:33:19;17.60;99.90
13409;DHT22;6775;49.574;11.170;2022-08-20T04:36:03;17.60;99.90
13409;DHT22;6775;49.574;11.170;2022-08-20T04:38:32;17.60;99.90
13409;DHT22;6775;49.574;11.170;2022-08-20T04:41:16;17.60;99.90
13409;DHT22;6775;49.574;11.170;2022-08-20T04:43:50;17.60;99.90
13409;DHT22;6775;49.574;11.170;2022-08-20T04:46:19;17.50;99.90
13409;DHT22;6775;49.574;11.170;2022-08-20T04:48:47;17.50;99.90
13409;DHT22;6775;49.574;11.170;2022-08-20T04:51:17;17.50;99.90
13409;DHT22;6775;49.574;11.170;2022-08-20T04:53:50;17.60;99.90
13409;DHT22;6775;49.574;11.170;2022-08-20T04:56:20;17.60;99.90
13409;DHT22;6775;49.574;11.170;2022-08-20T05:02:36;17.60;99.90
13409;DHT22;6775;49.574;11.170;2022-08-20T05:05:05;17.60;99.90
13409;DHT22;6775;49.574;11.170;2022-08-20T05:07:39;17.60;99.90
13409;DHT22;6775;49.574;11.170;2022-08-20T05:10:09;17.70;99.90
13409;DHT22;6775;49.574;11.170;2022-08-20T05:12:39;17.70;99.90
13409;DHT22;6775;49.574;11.170;2022-08-20T05:15:08;17.70;99.90
13409;DHT22;6775;49.574;11.170;2022-08-20T05:17:36;17.80;99.90
13409;DHT22;6775;49.574;11.170;2022-08-20T05:20:07;17.70;99.90
13409;DHT22;6775;49.574;11.170;2022-08-20T05:22:35;17.80;99.90
13409;DHT22;6775;49.574;11.170;2022-08-20T05:25:05;17.80;99.90
13409;DHT22;6775;49.574;11.170;2022-08-20T05:27:33;17.80;99.90
13409;DHT22;6775;49.574;11.170;2022-08-20T05:30:09;17.80;99.90
13409;DHT22;6775;49.574;11.170;2022-08-20T05:32:39;17.80;99.90
13409;DHT22;6775;49.574;11.170;2022-08-20T05:35:10;17.80;99.90
13409;DHT22;6775;49.574;11.170;2022-08-20T05:37:39;17.80;99.90
13409;DHT22;6775;49.574;11.170;2022-08-20T05:40:12;17.80;99.90
13409;DHT22;6775;49.574;11.170;2022-08-20T05:42:41;17.80;99.90
13409;DHT22;6775;49.574;11.170;2022-08-20T05:45:10;17.80;99.90
13409;DHT22;6775;49.574;11.170;2022-08-20T05:47:39;17.80;99.90
13409;DHT22;6775;49.574;11.170;2022-08-20T05:50:10;17.90;99.90
13409;DHT22;6775;49.574;11.170;2022-08-20T05:52:49;17.90;99.90
13409;DHT22;6775;49.574;11.170;2022-08-20T05:55:18;17.90;99.90
13409;DHT22;6775;49.574;11.170;2022-08-20T05:57:46;18.00;99.90
13409;DHT22;6775;49.574;11.170;2022-08-20T06:00:14;18.00;99.90
13409;DHT22;6775;49.574;11.170;2022-08-20T06:02:42;18.00;99.90
13409;DHT22;6775;49.574;11.170;2022-08-20T06:05:27;18.00;99.90
13409;DHT22;6775;49.574;11.170;2022-08-20T06:07:55;18.00;99.90
13409;DHT22;6775;49.574;11.170;2022-08-20T06:10:35;18.10;99.90
13409;DHT22;6775;49.574;11.170;2022-08-20T06:13:08;18.10;99.90
13409;DHT22;6775;49.574;11.170;2022-08-20T06:15:39;18.10;99.90
13409;DHT22;6775;49.574;11.170;2022-08-20T06:18:08;18.20;99.90
13409;DHT22;6775;49.574;11.170;2022-08-20T06:20:54;18.20;99.90
13409;DHT22;6775;49.574;11.170;2022-08-20T06:23:22;18.20;99.90
13409;DHT22;6775;49.574;11.170;2022-08-20T06:25:52;18.20;99.90
13409;DHT22;6775;49.574;11.170;2022-08-20T06:28:20;18.30;99.90
13409;DHT22;6775;49.574;11.170;2022-08-20T06:30:48;18.30;99.90
13409;DHT22;6775;49.574;11.170;2022-08-20T06:33:15;18.30;99.90
13409;DHT22;6775;49.574;11.170;2022-08-20T06:35:43;18.30;99.90
13409;DHT22;6775;49.574;11.170;2022-08-20T06:38:11;18.40;99.90
13409;DHT22;6775;49.574;11.170;2022-08-20T06:40:40;18.40;99.90
13409;DHT22;6775;49.574;11.170;2022-08-20T06:43:09;18.40;99.90
13409;DHT22;6775;49.574;11.170;2022-08-20T06:45:38;18.40;99.90
13409;DHT22;6775;49.574;11.170;2022-08-20T06:48:09;18.50;99.90
13409;DHT22;6775;49.574;11.170;2022-08-20T06:50:43;18.50;99.90
13409;DHT22;6775;49.574;11.170;2022-08-20T06:53:15;18.50;99.90
13409;DHT22;6775;49.574;11.170;2022-08-20T06:55:46;18.50;99.90
13409;DHT22;6775;49.574;11.170;2022-08-20T06:58:16;18.50;99.90
13409;DHT22;6775;49.574;11.170;2022-08-20T07:01:01;18.60;99.90
13409;DHT22;6775;49.574;11.170;2022-08-20T07:03:36;18.60;99.90
13409;DHT22;6775;49.574;11.170;2022-08-20T07:06:05;18.70;99.90
13409;DHT22;6775;49.574;11.170;2022-08-20T07:08:34;18.60;99.90
13409;DHT22;6775;49.574;11.170;2022-08-20T07:11:02;18.70;99.90
13409;DHT22;6775;49.574;11.170;2022-08-20T07:13:31;18.70;99.90
13409;DHT22;6775;49.574;11.170;2022-08-20T07:16:02;18.70;99.90
13409;DHT22;6775;49.574;11.170;2022-08-20T07:18:30;18.70;99.90
13409;DHT22;6775;49.574;11.170;2022-08-20T07:20:58;18.70;99.90
13409;DHT22;6775;49.574;11.170;2022-08-20T07:23:26;18.80;99.90
13409;DHT22;6775;49.574;11.170;2022-08-20T07:25:54;18.80;99.90
13409;DHT22;6775;49.574;11.170;2022-08-20T07:28:24;18.90;99.90
13409;DHT22;6775;49.574;11.170;2022-08-20T07:30:55;19.00;99.90
13409;DHT22;6775;49.574;11.170;2022-08-20T07:33:42;19.00;99.90
13409;DHT22;6775;49.574;11.170;2022-08-20T07:36:11;19.10;99.90
13409;DHT22;6775;49.574;11.170;2022-08-20T07:38:39;19.20;99.90
13409;DHT22;6775;49.574;11.170;2022-08-20T07:41:09;19.20;99.90
13409;DHT22;6775;49.574;11.170;2022-08-20T07:43:41;19.20;99.90
13409;DHT22;6775;49.574;11.170;2022-08-20T07:46:13;19.20;99.90
13409;DHT22;6775;49.574;11.170;2022-08-20T07:48:43;19.20;99.90
13409;DHT22;6775;49.574;11.170;2022-08-20T07:51:13;19.20;99.90
13409;DHT22;6775;49.574;11.170;2022-08-20T07:53:43;19.20;99.90
13409;DHT22;6775;49.574;11.170;2022-08-20T07:56:14;19.30;99.90
13409;DHT22;6775;49.574;11.170;2022-08-20T07:58:45;19.30;99.90
13409;DHT22;6775;49.574;11.170;2022-08-20T08:01:19;19.40;99.90
13409;DHT22;6775;49.574;11.170;2022-08-20T08:03:47;19.50;99.90
13409;DHT22;6775;49.574;11.170;2022-08-20T08:06:17;19.60;99.90
13409;DHT22;6775;49.574;11.170;2022-08-20T08:08:59;19.60;99.90
13409;DHT22;6775;49.574;11.170;2022-08-20T08:11:30;19.70;99.90
13409;DHT22;6775;49.574;11.170;2022-08-20T08:13:59;19.70;99.90
13409;DHT22;6775;49.574;11.170;2022-08-20T08:16:28;19.80;99.90
13409;DHT22;6775;49.574;11.170;2022-08-20T08:18:58;19.80;99.90
13409;DHT22;6775;49.574;11.170;2022-08-20T08:21:27;19.80;99.90
13409;DHT22;6775;49.574;11.170;2022-08-20T08:23:55;19.80;99.90
13409;DHT22;6775;49.574;11.170;2022-08-20T08:26:23;19.80;99.90
13409;DHT22;6775;49.574;11.170;2022-08-20T08:28:54;19.80;99.90
13409;DHT22;6775;49.574;11.170;2022-08-20T08:31:22;19.80;99.90
13409;DHT22;6775;49.574;11.170;2022-08-20T08:33:52;19.80;99.90
13409;DHT22;6775;49.574;11.170;2022-08-20T08:36:21;19.80;99.90
13409;DHT22;6775;49.574;11.170;2022-08-20T08:38:48;19.80;99.90
13409;DHT22;6775;49.574;11.170;2022-08-20T08:41:19;19.80;99.90
13409;DHT22;6775;49.574;11.170;2022-08-20T08:43:53;19.80;99.90
13409;DHT22;6775;49.574;11.170;2022-08-20T08:46:25;19.90;99.90
13409;DHT22;6775;49.574;11.170;2022-08-20T08:48:56;19.80;99.90
13409;DHT22;6775;49.574;11.170;2022-08-20T08:51:32;19.70;99.90
13409;DHT22;6775;49.574;11.170;2022-08-20T08:54:02;19.60;99.90
13409;DHT22;6775;49.574;11.170;2022-08-20T08:56:34;19.60;99.90
13409;DHT22;6775;49.574;11.170;2022-08-20T08:59:04;19.50;99.90
13409;DHT22;6775;49.574;11.170;2022-08-20T09:01:38;19.50;99.90
13409;DHT22;6775;49.574;11.170;2022-08-20T09:04:28;19.60;99.90
13409;DHT22;6775;49.574;11.170;2022-08-20T09:06:58;19.60;99.90
13409;DHT22;6775;49.574;11.170;2022-08-20T09:09:30;19.70;99.90
13409;DHT22;6775;49.574;11.170;2022-08-20T09:12:03;19.70;99.90
13409;DHT22;6775;49.574;11.170;2022-08-20T09:14:31;19.70;99.90
13409;DHT22;6775;49.574;11.170;2022-08-20T09:16:59;19.70;99.90
13409;DHT22;6775;49.574;11.170;2022-08-20T09:19:28;19.70;99.90
13409;DHT22;6775;49.574;11.170;2022-08-20T09:21:56;19.80;99.90
13409;DHT22;6775;49.574;11.170;2022-08-20T09:24:24;19.80;99.90
13409;DHT22;6775;49.574;11.170;2022-08-20T09:26:52;19.80;99.90
13409;DHT22;6775;49.574;11.170;2022-08-20T09:29:20;19.80;99.90
13409;DHT22;6775;49.574;11.170;2022-08-20T09:31:49;19.90;99.90
13409;DHT22;6775;49.574;11.170;2022-08-20T09:34:18;19.90;99.90
13409;DHT22;6775;49.574;11.170;2022-08-20T09:36:47;19.90;99.90
13409;DHT22;6775;49.574;11.170;2022-08-20T09:39:15;19.90;99.90
13409;DHT22;6775;49.574;11.170;2022-08-20T09:41:43;19.90;99.90
13409;DHT22;6775;49.574;11.170;2022-08-20T09:44:11;19.90;99.90
13409;DHT22;6775;49.574;11.170;2022-08-20T09:46:38;20.00;99.90
13409;DHT22;6775;49.574;11.170;2022-08-20T09:49:06;20.00;99.90
13409;DHT22;6775;49.574;11.170;2022-08-20T09:51:36;20.10;99.90
13409;DHT22;6775;49.574;11.170;2022-08-20T09:54:06;20.10;99.90
13409;DHT22;6775;49.574;11.170;2022-08-20T09:56:33;20.10;99.90
13409;DHT22;6775;49.574;11.170;2022-08-20T09:59:02;20.20;99.90
13409;DHT22;6775;49.574;11.170;2022-08-20T10:01:30;20.20;99.90
13409;DHT22;6775;49.574;11.170;2022-08-20T10:03:58;20.20;99.90
13409;DHT22;6775;49.574;11.170;2022-08-20T10:06:26;20.10;99.90
13409;DHT22;6775;49.574;11.170;2022-08-20T10:08:54;20.20;99.90
13409;DHT22;6775;49.574;11.170;2022-08-20T10:11:23;20.30;99.90
13409;DHT22;6775;49.574;11.170;2022-08-20T10:13:54;20.30;99.90
13409;DHT22;6775;49.574;11.170;2022-08-20T10:16:22;20.40;99.90
13409;DHT22;6775;49.574;11.170;2022-08-20T10:18:50;20.40;99.90
13409;DHT22;6775;49.574;11.170;2022-08-20T10:21:18;20.60;99.90
13409;DHT22;6775;49.574;11.170;2022-08-20T10:23:46;20.60;99.90
13409;DHT22;6775;49.574;11.170;2022-08-20T10:26:14;20.70;99.90
13409;DHT22;6775;49.574;11.170;2022-08-20T10:28:44;20.70;99.90
13409;DHT22;6775;49.574;11.170;2022-08-20T10:31:13;20.80;99.90
13409;DHT22;6775;49.574;11.170;2022-08-20T10:33:41;20.90;99.90
13409;DHT22;6775;49.574;11.170;2022-08-20T10:36:11;21.00;99.90
13409;DHT22;6775;49.574;11.170;2022-08-20T10:38:39;21.00;99.90
13409;DHT22;6775;49.574;11.170;2022-08-20T10:41:07;21.00;99.90
13409;DHT22;6775;49.574;11.170;2022-08-20T10:43:35;21.10;99.90
13409;DHT22;6775;49.574;11.170;2022-08-20T10:46:04;21.10;99.90
13409;DHT22;6775;49.574;11.170;2022-08-20T10:48:33;21.20;99.90
13409;DHT22;6775;49.574;11.170;2022-08-20T10:51:01;21.20;99.90
13409;DHT22;6775;49.574;11.170;2022-08-20T10:53:29;21.10;99.90
13409;DHT22;6775;49.574;11.170;2022-08-20T10:55:57;21.20;99.90
13409;DHT22;6775;49.574;11.170;2022-08-20T10:58:26;21.20;99.90
13409;DHT22;6775;49.574;11.170;2022-08-20T11:01:06;21.20;99.90
13409;DHT22;6775;49.574;11.170;2022-08-20T11:03:34;21.20;99.90
13409;DHT22;6775;49.574;11.170;2022-08-20T11:06:02;21.30;99.90
13409;DHT22;6775;49.574;11.170;2022-08-20T11:08:31;21.40;99.90
13409;DHT22;6775;49.574;11.170;2022-08-20T11:11:02;21.50;99.90
13409;DHT22;6775;49.574;11.170;2022-08-20T11:13:31;21.60;99.90
13409;DHT22;6775;49.574;11.170;2022-08-20T11:16:00;21.80;99.90
13409;DHT22;6775;49.574;11.170;2022-08-20T11:18:30;21.90;99.90
13409;DHT22;6775;49.574;11.170;2022-08-20T11:20:58;22.10;99.90
13409;DHT22;6775;49.574;11.170;2022-08-20T11:23:26;22.20;99.90
13409;DHT22;6775;49.574;11.170;2022-08-20T11:25:56;22.20;99.90
13409;DHT22;6775;49.574;11.170;2022-08-20T11:28:24;22.10;99.90
13409;DHT22;6775;49.574;11.170;2022-08-20T11:30:58;22.10;99.90
13409;DHT22;6775;49.574;11.170;2022-08-20T11:33:26;22.00;99.90
13409;DHT22;6775;49.574;11.170;2022-08-20T11:35:56;22.00;99.90
13409;DHT22;6775;49.574;11.170;2022-08-20T11:38:24;22.00;99.90
13409;DHT22;6775;49.574;11.170;2022-08-20T11:40:52;22.00;99.90
13409;DHT22;6775;49.574;11.170;2022-08-20T11:43:20;22.00;99.90
13409;DHT22;6775;49.574;11.170;2022-08-20T11:45:52;22.00;99.90
13409;DHT22;6775;49.574;11.170;2022-08-20T11:48:21;22.10;99.90
13409;DHT22;6775;49.574;11.170;2022-08-20T11:50:49;22.20;99.90
13409;DHT22;6775;49.574;11.170;2022-08-20T11:53:18;22.30;99.90
13409;DHT22;6775;49.574;11.170;2022-08-20T11:55:48;22.40;99.90
13409;DHT22;6775;49.574;11.170;2022-08-20T11:58:16;22.50;99.90
13409;DHT22;6775;49.574;11.170;2022-08-20T12:00:44;22.60;99.90
13409;DHT22;6775;49.574;11.170;2022-08-20T12:03:12;22.70;99.90
13409;DHT22;6775;49.574;11.170;2022-08-20T12:05:42;22.90;99.90
13409;DHT22;6775;49.574;11.170;2022-08-20T12:08:11;22.90;99.90
13409;DHT22;6775;49.574;11.170;2022-08-20T12:10:55;23.00;99.90
13409;DHT22;6775;49.574;11.170;2022-08-20T12:13:23;23.00;99.90
13409;DHT22;6775;49.574;11.170;2022-08-20T12:16:11;23.10;99.90
13409;DHT22;6775;49.574;11.170;2022-08-20T12:18:39;23.10;99.90
13409;DHT22;6775;49.574;11.170;2022-08-20T12:21:07;23.00;99.90
13409;DHT22;6775;49.574;11.170;2022-08-20T12:23:35;23.20;99.90
13409;DHT22;6775;49.574;11.170;2022-08-20T12:26:04;23.20;99.90
13409;DHT22;6775;49.574;11.170;2022-08-20T12:28:32;23.20;99.90
13409;DHT22;6775;49.574;11.170;2022-08-20T12:31:00;23.30;99.90
13409;DHT22;6775;49.574;11.170;2022-08-20T12:33:28;23.40;99.90
13409;DHT22;6775;49.574;11.170;2022-08-20T12:35:56;23.50;99.90
13409;DHT22;6775;49.574;11.170;2022-08-20T12:38:24;23.70;99.90
13409;DHT22;6775;49.574;11.170;2022-08-20T12:40:52;23.70;99.90
13409;DHT22;6775;49.574;11.170;2022-08-20T12:43:21;23.80;99.90
13409;DHT22;6775;49.574;11.170;2022-08-20T12:45:51;23.80;99.90
13409;DHT22;6775;49.574;11.170;2022-08-20T12:48:19;23.70;99.90
13409;DHT22;6775;49.574;11.170;2022-08-20T12:50:47;23.70;99.90
13409;DHT22;6775;49.574;11.170;2022-08-20T12:53:16;23.70;99.90
13409;DHT22;6775;49.574;11.170;2022-08-20T12:55:44;23.60;99.90
13409;DHT22;6775;49.574;11.170;2022-08-20T12:58:12;23.50;99.90
13409;DHT22;6775;49.574;11.170;2022-08-20T13:00:43;23.40;99.90
13409;DHT22;6775;49.574;11.170;2022-08-20T13:03:16;23.30;99.90
13409;DHT22;6775;49.574;11.170;2022-08-20T13:05:44;23.20;99.90
13409;DHT22;6775;49.574;11.170;2022-08-20T13:08:12;23.10;99.90
13409;DHT22;6775;49.574;11.170;2022-08-20T13:10:42;23.00;99.90
13409;DHT22;6775;49.574;11.170;2022-08-20T13:13:11;22.80;99.90
13409;DHT22;6775;49.574;11.170;2022-08-20T13:15:39;22.80;99.90
13409;DHT22;6775;49.574;11.170;2022-08-20T13:18:09;22.70;99.90
13409;DHT22;6775;49.574;11.170;2022-08-20T13:20:37;22.60;99.90
13409;DHT22;6775;49.574;11.170;2022-08-20T13:23:04;22.40;99.90
13409;DHT22;6775;49.574;11.170;2022-08-20T13:25:32;22.30;99.90
13409;DHT22;6775;49.574;11.170;2022-08-20T13:28:02;22.20;99.90
13409;DHT22;6775;49.574;11.170;2022-08-20T13:30:31;22.20;99.90
13409;DHT22;6775;49.574;11.170;2022-08-20T13:32:59;22.10;99.90
13409;DHT22;6775;49.574;11.170;2022-08-20T13:35:29;22.00;99.90
13409;DHT22;6775;49.574;11.170;2022-08-20T13:37:56;22.00;99.90
13409;DHT22;6775;49.574;11.170;2022-08-20T13:40:25;22.00;99.90
13409;DHT22;6775;49.574;11.170;2022-08-20T13:42:53;22.10;99.90
13409;DHT22;6775;49.574;11.170;2022-08-20T13:45:21;22.20;99.90
13409;DHT22;6775;49.574;11.170;2022-08-20T13:47:51;22.30;99.90
13409;DHT22;6775;49.574;11.170;2022-08-20T13:50:21;22.40;99.90
13409;DHT22;6775;49.574;11.170;2022-08-20T13:52:51;22.50;99.90
13409;DHT22;6775;49.574;11.170;2022-08-20T13:55:21;22.60;99.90
13409;DHT22;6775;49.574;11.170;2022-08-20T13:57:49;22.70;99.90
13409;DHT22;6775;49.574;11.170;2022-08-20T14:00:20;22.80;99.90
13409;DHT22;6775;49.574;11.170;2022-08-20T14:02:57;22.90;99.90
13409;DHT22;6775;49.574;11.170;2022-08-20T14:05:26;23.00;99.90
13409;DHT22;6775;49.574;11.170;2022-08-20T14:08:02;23.10;99.90
13409;DHT22;6775;49.574;11.170;2022-08-20T14:10:30;23.20;99.90
13409;DHT22;6775;49.574;11.170;2022-08-20T14:12:58;23.30;99.90
13409;DHT22;6775;49.574;11.170;2022-08-20T14:15:26;23.30;99.90
13409;DHT22;6775;49.574;11.170;2022-08-20T14:17:55;23.50;99.90
13409;DHT22;6775;49.574;11.170;2022-08-20T14:20:27;23.40;99.90
13409;DHT22;6775;49.574;11.170;2022-08-20T14:22:59;23.50;99.90
13409;DHT22;6775;49.574;11.170;2022-08-20T14:25:29;23.50;99.90
13409;DHT22;6775;49.574;11.170;2022-08-20T14:27:57;23.50;99.90
13409;DHT22;6775;49.574;11.170;2022-08-20T14:30:27;23.70;99.90
13409;DHT22;6775;49.574;11.170;2022-08-20T14:32:56;23.70;99.90
13409;DHT22;6775;49.574;11.170;2022-08-20T14:35:24;23.70;99.90
13409;DHT22;6775;49.574;11.170;2022-08-20T14:37:53;23.70;99.90
13409;DHT22;6775;49.574;11.170;2022-08-20T14:40:25;23.70;99.90
13409;DHT22;6775;49.574;11.170;2022-08-20T14:42:54;23.60;99.90
13409;DHT22;6775;49.574;11.170;2022-08-20T14:45:22;23.50;99.90
13409;DHT22;6775;49.574;11.170;2022-08-20T14:47:53;23.50;99.90
13409;DHT22;6775;49.574;11.170;2022-08-20T14:50:24;23.50;99.90
13409;DHT22;6775;49.574;11.170;2022-08-20T14:52:52;23.40;99.90
13409;DHT22;6775;49.574;11.170;2022-08-20T14:55:25;23.40;99.90
13409;DHT22;6775;49.574;11.170;2022-08-20T14:57:53;23.40;99.90
13409;DHT22;6775;49.574;11.170;2022-08-20T15:00:23;23.50;99.90
13409;DHT22;6775;49.574;11.170;2022-08-20T15:02:51;23.40;99.90
13409;DHT22;6775;49.574;11.170;2022-08-20T15:05:19;23.40;99.90
13409;DHT22;6775;49.574;11.170;2022-08-20T15:07:50;23.40;99.90
13409;DHT22;6775;49.574;11.170;2022-08-20T15:10:23;23.30;99.90
13409;DHT22;6775;49.574;11.170;2022-08-20T15:12:51;23.30;99.90
13409;DHT22;6775;49.574;11.170;2022-08-20T15:15:20;23.30;99.90
13409;DHT22;6775;49.574;11.170;2022-08-20T15:17:50;23.30;99.90
13409;DHT22;6775;49.574;11.170;2022-08-20T15:20:21;23.20;99.90
13409;DHT22;6775;49.574;11.170;2022-08-20T15:22:50;23.20;99.90
13409;DHT22;6775;49.574;11.170;2022-08-20T15:25:20;23.20;99.90
13409;DHT22;6775;49.574;11.170;2022-08-20T15:27:54;23.10;99.90
13409;DHT22;6775;49.574;11.170;2022-08-20T15:30:28;23.10;99.90
13409;DHT22;6775;49.574;11.170;2022-08-20T15:32:56;23.10;99.90
13409;DHT22;6775;49.574;11.170;2022-08-20T15:35:26;23.00;99.90
13409;DHT22;6775;49.574;11.170;2022-08-20T15:37:56;23.00;99.90
13409;DHT22;6775;49.574;11.170;2022-08-20T15:40:27;23.00;99.90
13409;DHT22;6775;49.574;11.170;2022-08-20T15:42:56;22.90;99.90
13409;DHT22;6775;49.574;11.170;2022-08-20T15:45:25;22.90;99.90
13409;DHT22;6775;49.574;11.170;2022-08-20T15:47:55;22.90;99.90
13409;DHT22;6775;49.574;11.170;2022-08-20T15:50:37;22.80;99.90
13409;DHT22;6775;49.574;11.170;2022-08-20T15:53:10;22.80;99.90
13409;DHT22;6775;49.574;11.170;2022-08-20T15:55:44;22.70;99.90
13409;DHT22;6775;49.574;11.170;2022-08-20T15:58:20;22.60;99.90
13409;DHT22;6775;49.574;11.170;2022-08-20T16:00:55;22.60;99.90
13409;DHT22;6775;49.574;11.170;2022-08-20T16:04:14;22.60;99.90
13409;DHT22;6775;49.574;11.170;2022-08-20T16:06:50;22.40;99.90
13409;DHT22;6775;49.574;11.170;2022-08-20T16:09:42;22.30;99.90
13409;DHT22;6775;49.574;11.170;2022-08-20T16:12:16;22.20;99.90
13409;DHT22;6775;49.574;11.170;2022-08-20T16:14:50;22.20;99.90
13409;DHT22;6775;49.574;11.170;2022-08-20T16:17:31;22.10;99.90
13409;DHT22;6775;49.574;11.170;2022-08-20T16:20:03;22.00;99.90
13409;DHT22;6775;49.574;11.170;2022-08-20T16:22:37;22.00;99.90